Latest Coastal Weather Observations for Moorabbin Airport

IDV60701

Issued at 9:22 pm EST Saturday 25 June 2022 (issued every 10 minutes, with the page automatically refreshed every 10 minutes)

About coastal observations | Map of coastal stations | Coastal observations for VIC | Marine services | Other Formats
Station Details ID: 086077 Name: MOORABBIN AIRPORT Lat: -37.98 Lon: 145.10 Height: 12.1 m
Data from the previous 72 hours. | See also: Recent months at Moorabbin Airport
Date/Time
EST
Wind Sea
Height
m
Swell Vis
km
Cloud Weather Temp
°C
Press
MSL
hPa
Rain since
9am
mm
Dir  Spd
kts
Gust
kts
Height
m
Period
s
Dir
25/09:00pm NNW 13 18 - - - - 10 Cloudy - 12.7 1020.0 0.0
25/08:30pm N 14 19 - - - - 10 Partly cloudy - 12.6 1019.8 0.0
25/08:00pm N 14 21 - - - - 10 Cloudy - 13.1 1019.8 0.0
25/07:30pm N 16 22 - - - - 10 Cloudy - 13.3 1019.6 0.0
25/07:00pm NNW 14 18 - - - - 10 Partly cloudy - 13.3 1019.3 0.0
25/06:30pm N 14 21 - - - - 10 Partly cloudy - 13.3 1018.8 0.0
25/06:00pm NNW 12 17 - - - - 10 Mostly clear - 13.5 1018.6 0.0
25/05:30pm NNW 12 16 - - - - 10 Partly cloudy - 14.1 1018.8 0.0
25/05:00pm NNW 14 21 - - - - 10 Partly cloudy - 15.1 1018.5 0.0
25/04:30pm NNW 11 16 - - - - 10 Partly cloudy - 14.7 1018.5 0.0
25/04:00pm NNW 10 15 - - - - 10 Partly cloudy - 15.8 1018.6 0.0
25/03:30pm NNW 12 18 - - - - 10 Partly cloudy - 16.0 1018.6 0.0
25/03:00pm NNW 12 19 - - - - 10 Partly cloudy - 16.2 1018.5 0.0
25/02:30pm NNW 14 20 - - - - 10 - - 15.9 1018.3 0.0
25/02:00pm NW 15 21 - - - - 10 Partly cloudy - 16.0 1018.5 0.0
25/01:30pm NW 13 20 - - - - 10 - - 15.8 1018.7 0.0
25/01:00pm NW 12 19 - - - - 10 - - 15.2 1018.9 0.0
25/12:30pm NW 15 22 - - - - 10 Partly cloudy - 15.1 1019.1 0.0
25/12:00pm NNW 15 22 - - - - 10 Mostly clear - 15.1 1019.1 0.0
25/11:30am NNW 15 23 - - - - 10 - - 14.8 1019.3 0.0
25/11:00am NNW 14 21 - - - - 10 - - 14.4 1019.7 0.0
25/10:30am NNW 13 18 - - - - 10 - - 13.3 1019.7 0.0
25/10:00am N 12 16 - - - - 10 - - 12.9 1019.8 0.0
25/09:30am N 12 16 - - - - 10 Partly cloudy - 11.8 1019.7 0.0
25/09:00am N 13 17 - - - - 10 Cloudy - 10.8 1019.1 0.0
25/08:30am N 11 14 - - - - 10 Partly cloudy - 10.6 1019.1 0.0
25/08:00am N 9 11 - - - - 10 Partly cloudy - 10.0 1018.8 0.0
25/07:30am N 8 10 - - - - 10 Partly cloudy - 9.7 1018.7 0.0
25/07:00am N 9 12 - - - - 10 Partly cloudy - 9.9 1018.3 0.0
25/06:30am N 10 13 - - - - 10 Partly cloudy - 9.8 1018.0 0.0
25/06:00am N 10 13 - - - - 10 Cloudy - 10.1 1017.7 0.0
25/05:30am N 9 13 - - - - 10 Partly cloudy - 10.4 1017.4 0.0
25/05:00am N 9 12 - - - - 10 Cloudy - 10.6 1017.2 0.0
25/04:30am N 7 9 - - - - 10 Cloudy - 10.7 1016.9 0.0
25/04:00am N 6 8 - - - - 10 Cloudy - 10.4 1016.9 0.0
25/03:30am N 8 9 - - - - 10 Partly cloudy - 9.7 1016.8 0.0
25/03:00am N 7 9 - - - - 10 Mostly cloudy - 10.4 1017.1 0.0
25/02:30am N 7 10 - - - - 10 Cloudy - 10.9 1017.1 0.0
25/02:00am N 7 9 - - - - 10 Cloudy - 10.8 1017.0 0.0
25/01:30am N 9 11 - - - - 10 Cloudy - 11.0 1016.8 0.0
25/01:00am NNW 6 8 - - - - 10 Cloudy - 10.8 1016.9 0.0
25/12:30am N 5 6 - - - - 10 Cloudy - 10.4 1017.1 0.0
25/12:00am N 6 7 - - - - 10 Mostly cloudy - 10.5 1017.2 0.0
 
Date/Time
EST
Wind Sea
Height
m
Swell Vis
km
Cloud Weather Temp
°C
Press
MSL
hPa
Rain since
9am
mm
Dir  Spd
kts
Gust
kts
Height
m
Period
s
Dir
24/11:30pm N 6 7 - - - - 10 Partly cloudy - 11.0 1017.3 0.0
24/11:00pm NNW 6 8 - - - - 10 Cloudy - 11.3 1017.3 0.0
24/10:30pm N 6 6 - - - - 10 Partly cloudy - 10.8 1017.3 0.0
24/10:00pm NNW 5 7 - - - - 10 Partly cloudy - 11.2 1017.4 0.0
24/09:30pm NW 4 5 - - - - 10 Partly cloudy - 11.1 1017.4 0.0
24/09:00pm NW 6 8 - - - - 10 Partly cloudy - 10.9 1017.2 0.0
24/08:30pm NNW 5 6 - - - - 10 Partly cloudy - 11.2 1017.1 0.0
24/08:00pm WNW 5 8 - - - - 10 Cloudy - 11.7 1017.2 0.0
24/07:30pm WNW 7 12 - - - - 10 Partly cloudy - 11.9 1017.2 0.0
24/07:00pm WNW 7 11 - - - - 10 Partly cloudy - 12.0 1016.9 0.0
24/06:30pm W 8 11 - - - - 10 Partly cloudy - 12.3 1016.5 0.0
24/06:00pm WNW 5 7 - - - - 10 Partly cloudy - 12.5 1016.1 0.0
24/05:30pm NW 4 6 - - - - 10 Partly cloudy - 12.0 1015.7 0.0
24/05:00pm WNW 3 5 - - - - 10 - - 13.0 1015.5 0.0
24/04:30pm WNW 6 9 - - - - 10 - - 13.8 1015.2 0.0
24/04:00pm WNW 8 12 - - - - 10 Partly cloudy - 14.3 1015.2 0.0
24/03:30pm W 8 11 - - - - 10 Partly cloudy - 14.3 1015.1 0.0
24/03:00pm W 12 17 - - - - 10 Cloudy - 13.3 1015.2 0.0
24/02:30pm WNW 7 10 - - - - 10 Partly cloudy - 14.7 1014.8 0.0
24/02:00pm WNW 9 13 - - - - 10 - - 15.5 1014.7 0.0
24/01:30pm WNW 11 16 - - - - 10 Partly cloudy - 15.3 1014.9 0.0
24/01:00pm WNW 10 15 - - - - 10 Partly cloudy - 14.6 1015.0 0.0
24/12:30pm NW 10 15 - - - - 10 Partly cloudy - 14.4 1015.0 0.0
24/12:00pm NW 9 13 - - - - 10 Cloudy - 14.2 1015.2 0.0
24/11:30am WNW 10 14 - - - - 10 Partly cloudy - 14.8 1015.4 0.0
24/11:00am WNW 9 15 - - - - 10 Cloudy - 13.4 1015.4 0.0
24/10:30am NW 9 14 - - - - 10 Partly cloudy - 13.4 1015.4 0.0
24/10:00am NW 8 13 - - - - 10 Partly cloudy - 12.8 1015.4 0.0
24/09:30am NW 9 13 - - - - 10 Partly cloudy - 12.9 1014.8 0.0
24/09:00am NW 8 11 - - - - 10 Cloudy - 12.9 1014.4 5.0
24/08:30am NNW 6 8 - - - - 10 Cloudy - 12.4 1014.0 5.0
24/08:00am NNW 8 10 - - - - 10 Partly cloudy - 12.0 1013.7 5.0
24/07:30am NNW 9 13 - - - - 10 Partly cloudy - 11.8 1013.2 5.0
24/07:00am NNW 10 14 - - - - 10 Partly cloudy - 11.7 1012.9 5.0
24/06:30am N 11 14 - - - - 10 Partly cloudy - 11.7 1012.5 5.0
24/06:18am N 12 15 - - - - 10 Partly cloudy - 11.6 1012.3 5.0
24/06:00am N 13 17 - - - - 4 Mostly cloudy Rain 11.6 1012.1 4.6
24/05:49am NNW 11 15 - - - - 5 Partly cloudy - 11.8 1012.2 4.0
24/05:30am NNW 12 17 - - - - 8 Partly cloudy - 12.1 1011.7 2.8
24/05:00am NNW 11 15 - - - - 6 - - 12.4 1011.6 1.6
24/04:30am NNW 13 18 - - - - 10 Partly cloudy - 13.1 1011.6 0.4
24/04:00am NNW 13 19 - - - - 10 Partly cloudy - 13.7 1011.5 0.0
24/03:30am N 16 22 - - - - 10 Partly cloudy - 14.2 1011.6 0.0
24/03:00am NNW 15 22 - - - - 10 Cloudy - 14.6 1011.8 0.0
24/02:30am N 18 25 - - - - 10 Cloudy - 14.7 1012.2 0.0
24/02:12am N 18 28 - - - - 10 Cloudy - 14.8 1012.1 0.0
24/02:00am N 19 27 - - - - 10 Cloudy - 14.8 1012.0 0.0
24/01:33am N 24 35 - - - - 10 Partly cloudy - 15.1 1011.6 0.0
24/01:30am N 24 33 - - - - 10 Partly cloudy - 15.0 1011.6 0.0
24/01:00am N 21 31 - - - - 10 Partly cloudy - 14.9 1012.2 0.0
24/12:30am N 23 34 - - - - 10 - - 14.7 1012.6 0.0
24/12:04am N 21 33 - - - - 10 Partly cloudy - 14.7 1012.7 0.0
24/12:00am N 22 31 - - - - 10 Mostly cloudy - 14.6 1012.9 0.0
 
Date/Time
EST
Wind Sea
Height
m
Swell Vis
km
Cloud Weather Temp
°C
Press
MSL
hPa
Rain since
9am
mm
Dir  Spd
kts
Gust
kts
Height
m
Period
s
Dir
23/11:40pm N 21 31 - - - - 10 Partly cloudy - 14.8 1013.1 0.0
23/11:30pm N 21 29 - - - - 10 Partly cloudy - 14.8 1013.2 0.0
23/11:03pm N 22 32 - - - - 10 - - 14.6 1013.1 0.0
23/11:00pm N 23 32 - - - - 10 - - 14.7 1013.1 0.0
23/10:30pm N 23 33 - - - - 10 - - 14.6 1013.2 0.0
23/10:27pm N 23 33 - - - - 10 - - 14.5 1013.2 0.0
23/10:00pm NNW 20 29 - - - - 10 - - 14.6 1014.1 0.0
23/09:30pm N 21 29 - - - - 10 - - 14.7 1014.4 0.0
23/09:00pm N 19 27 - - - - 10 Mostly clear - 14.5 1014.9 0.0
23/08:30pm N 17 24 - - - - 10 - - 14.8 1015.1 0.0
23/08:00pm N 17 22 - - - - 10 - - 14.8 1015.5 0.0
23/07:30pm N 17 29 - - - - 10 - - 14.9 1015.5 0.0
23/07:27pm N 17 29 - - - - 10 - - 14.9 1015.5 0.0
23/07:00pm N 17 24 - - - - 10 - - 14.9 1015.6 0.0
23/06:30pm NNW 15 21 - - - - 10 - - 14.7 1016.0 0.0
23/06:00pm NNW 16 23 - - - - 10 Partly cloudy - 14.6 1015.9 0.0
23/05:44pm NNW 17 27 - - - - 10 - - 14.6 1015.8 0.0
23/05:30pm N 18 24 - - - - 10 - - 14.5 1015.8 0.0
23/05:14pm N 17 27 - - - - 10 - - 14.5 1015.8 0.0
23/05:00pm N 16 22 - - - - 10 - - 14.4 1016.0 0.0
23/04:30pm N 15 23 - - - - 10 - - 14.5 1015.9 0.0
23/04:00pm N 15 19 - - - - 10 - - 14.9 1016.2 0.0
23/03:30pm N 17 23 - - - - 10 - - 15.4 1016.5 0.0
23/03:00pm N 17 25 - - - - 10 - - 15.5 1016.5 0.0
23/02:30pm N 18 24 - - - - 10 - - 15.7 1016.8 0.0
23/02:00pm N 15 22 - - - - 10 - - 15.8 1017.0 0.0
23/01:30pm N 17 21 - - - - 10 - - 15.6 1017.7 0.0
23/01:00pm N 17 24 - - - - 10 - - 15.5 1018.2 0.0
23/12:30pm NNW 15 20 - - - - 10 - - 15.7 1018.9 0.0
23/12:00pm N 12 18 - - - - 10 Partly cloudy - 15.9 1019.7 0.0
23/11:30am N 14 18 - - - - 10 - - 15.6 1020.4 0.0
23/11:00am NNW 13 18 - - - - 10 - - 15.4 1020.8 0.0
23/10:30am N 15 19 - - - - 10 - - 14.9 1020.9 0.0
23/10:00am N 14 19 - - - - 10 - - 14.0 1021.1 0.0
23/09:30am N 13 18 - - - - 10 - - 13.5 1021.2 0.0
23/09:00am N 10 14 - - - - 10 Partly cloudy - 13.1 1021.6 0.2
23/08:30am NNW 9 15 - - - - 10 Partly cloudy - 12.7 1021.6 0.2
23/08:00am NNW 10 14 - - - - 10 Cloudy - 12.5 1021.2 0.2
23/07:30am NNW 10 12 - - - - 10 Cloudy - 12.1 1021.3 0.2
23/07:00am N 9 12 - - - - 10 Cloudy - 11.9 1021.4 0.2
23/06:30am N 11 14 - - - - 10 Partly cloudy - 11.9 1021.1 0.2
23/06:00am NNW 11 15 - - - - 10 - - 11.9 1020.9 0.2
23/05:30am NNW 11 15 - - - - 10 Partly cloudy - 12.2 1020.9 0.2
23/05:00am N 10 13 - - - - 10 Partly cloudy - 11.8 1020.8 0.2
23/04:30am N 10 12 - - - - 10 - - 11.7 1021.0 0.2
23/04:00am N 10 13 - - - - 10 Partly cloudy - 12.0 1021.5 0.2
23/03:30am N 10 12 - - - - 10 Partly cloudy - 12.2 1021.8 0.2
23/03:00am NNW 10 13 - - - - 10 Mostly cloudy - 12.5 1022.0 0.2
23/02:30am N 8 11 - - - - 10 Partly cloudy - 12.1 1022.3 0.2
23/02:00am NNW 9 13 - - - - 10 Partly cloudy - 12.0 1022.6 0.2
23/01:30am N 9 13 - - - - 10 Partly cloudy - 11.9 1022.7 0.2
23/01:00am N 9 11 - - - - 10 Partly cloudy - 11.7 1022.8 0.2
23/12:30am N 8 10 - - - - 10 Partly cloudy - 11.4 1022.9 0.2
23/12:05am N 8 11 - - - - 10 Partly cloudy - 11.5 1023.0 0.2
23/12:00am N 9 11 - - - - 10 Cloudy Recent precip. 11.6 1023.0 0.2
 
Date/Time
EST
Wind Sea
Height
m
Swell Vis
km
Cloud Weather Temp
°C
Press
MSL
hPa
Rain since
9am
mm
Dir  Spd
kts
Gust
kts
Height
m
Period
s
Dir
22/11:35pm N 9 13 - - - - 5 Partly cloudy - 11.7 1023.1 0.0
22/11:30pm N 10 13 - - - - 10 Partly cloudy - 11.7 1023.2 0.0
22/11:00pm N 10 13 - - - - 10 Partly cloudy - 12.2 1023.5 0.0
22/10:30pm N 13 17 - - - - 10 Partly cloudy - 12.4 1023.5 0.0
22/10:00pm N 9 12 - - - - 10 Partly cloudy - 11.9 1023.6 0.0
22/09:30pm N 9 12 - - - - 10 Partly cloudy - 11.8 1023.7 0.0

Other formats

Comma delimited format used in spreadsheet applications
http://www.bom.gov.au/fwo/IDV60701/IDV60701.94870.axf

JavaScript Object Notation format (JSON) in row-major order
http://www.bom.gov.au/fwo/IDV60701/IDV60701.94870.json

Data quality

Most of these data are generated automatically and are frequently updated. Quality checks on data are not normally performed. It is possible for incorrect values to appear. Refer to information at About Latest Weather Observations and please check the disclaimer before using these data.